createdAt,value
2019-06-01T00:01:02.994Z,74.51
2019-06-01T00:04:11.672Z,74.58
2019-06-01T00:07:20.297Z,74.63
2019-06-01T00:10:39.169Z,74.75
2019-06-01T00:13:47.799Z,75.03
2019-06-01T00:16:56.435Z,75.29
2019-06-01T00:20:03.729Z,75.55
2019-06-01T00:23:12.283Z,75.76
2019-06-01T00:26:20.876Z,75.83
2019-06-01T00:29:29.423Z,76.02
2019-06-01T00:32:38.015Z,76.08
2019-06-01T00:35:47.437Z,76.18
2019-06-01T00:38:56.284Z,76.35
2019-06-01T00:42:04.873Z,76.40
2019-06-01T00:45:13.890Z,76.62
2019-06-01T00:48:22.517Z,76.63
2019-06-01T00:51:31.122Z,76.59
2019-06-01T00:54:39.717Z,76.51
2019-06-01T00:57:48.210Z,76.53
2019-06-01T01:01:07.010Z,76.57
2019-06-01T01:04:15.623Z,76.68
2019-06-01T01:07:24.118Z,76.88
2019-06-01T01:10:32.728Z,76.88
2019-06-01T01:13:41.641Z,76.82
2019-06-01T01:16:51.542Z,76.58
2019-06-01T01:20:00.669Z,76.63
2019-06-01T01:23:09.808Z,76.61
2019-06-01T01:26:18.421Z,76.77
2019-06-01T01:29:27.176Z,76.75
2019-06-01T01:32:35.756Z,76.92
2019-06-01T01:35:44.410Z,77.00
2019-06-01T01:39:03.798Z,77.25
2019-06-01T01:42:22.408Z,77.30
2019-06-01T01:45:31.020Z,77.55
2019-06-01T01:48:39.621Z,77.67
2019-06-01T01:51:48.315Z,77.58
2019-06-01T01:54:56.860Z,77.45
2019-06-01T01:58:05.724Z,77.38
2019-06-01T02:01:22.400Z,77.15
2019-06-01T02:04:24.577Z,76.99
2019-06-01T02:07:43.375Z,76.73
2019-06-01T02:10:53.038Z,76.19
2019-06-01T02:14:02.201Z,76.02
2019-06-01T02:17:10.866Z,76.32
2019-06-01T02:20:19.147Z,76.49
2019-06-01T02:23:28.358Z,76.45
2019-06-01T02:26:36.987Z,76.23
2019-06-01T02:29:45.796Z,76.13
2019-06-01T02:32:56.199Z,76.13
2019-06-01T02:36:05.405Z,75.73
2019-06-01T02:39:15.367Z,76.06
2019-06-01T02:42:24.388Z,76.10
2019-06-01T02:45:32.989Z,76.05
2019-06-01T02:48:42.979Z,76.22
2019-06-01T02:52:01.878Z,76.32
2019-06-01T02:55:15.659Z,75.53
2019-06-01T02:58:24.181Z,76.17
2019-06-01T03:01:36.723Z,76.27
2019-06-01T03:04:58.881Z,76.28
2019-06-01T03:08:20.313Z,76.12
2019-06-01T03:11:40.699Z,75.85
2019-06-01T03:14:50.961Z,75.40
2019-06-01T03:18:03.443Z,75.80
2019-06-01T03:21:25.425Z,75.81
2019-06-01T03:24:37.972Z,75.53
2019-06-01T03:27:59.973Z,75.02
2019-06-01T03:31:10.492Z,74.64
2019-06-01T03:34:19.089Z,73.98
2019-06-01T03:37:27.494Z,74.08
2019-06-01T03:40:36.095Z,73.90
2019-06-01T03:43:44.716Z,74.02
2019-06-01T03:47:03.930Z,73.78
2019-06-01T03:50:23.876Z,73.54
2019-06-01T03:53:32.399Z,72.68
2019-06-01T03:56:41.010Z,72.65
2019-06-01T04:00:00.959Z,73.02
2019-06-01T04:03:09.703Z,73.00
2019-06-01T04:06:18.377Z,73.04
2019-06-01T04:09:27.040Z,72.81
2019-06-01T04:12:35.620Z,72.01
2019-06-01T04:15:44.237Z,71.87
2019-06-01T04:18:53.141Z,71.34
2019-06-01T04:22:01.962Z,71.41
2019-06-01T04:25:10.738Z,71.30
2019-06-01T04:28:19.394Z,71.37
2019-06-01T04:31:38.285Z,71.51
2019-06-01T04:34:47.003Z,71.28
2019-06-01T04:37:55.605Z,71.71
2019-06-01T04:41:05.587Z,70.85
2019-06-01T04:44:14.464Z,70.96
2019-06-01T04:47:23.119Z,71.11
2019-06-01T04:50:32.109Z,69.63
2019-06-01T04:53:40.691Z,69.37
2019-06-01T04:56:49.388Z,68.28
2019-06-01T04:59:58.076Z,68.51
2019-06-01T05:03:08.748Z,68.15
2019-06-01T05:06:27.142Z,68.03
2019-06-01T05:09:35.720Z,67.71
2019-06-01T05:12:44.414Z,67.45
2019-06-01T05:15:53.041Z,67.92
2019-06-01T05:19:00.051Z,67.75
2019-06-01T05:22:08.741Z,66.91
2019-06-01T05:25:17.557Z,67.25
2019-06-01T05:28:26.193Z,67.16
2019-06-01T05:31:34.814Z,66.95
2019-06-01T05:34:53.666Z,66.91
2019-06-01T05:38:02.285Z,67.17
2019-06-01T05:41:11.943Z,66.07
2019-06-01T05:44:21.304Z,66.07
2019-06-01T05:47:28.896Z,65.68
2019-06-01T05:50:37.510Z,65.14
2019-06-01T05:53:46.127Z,65.53
2019-06-01T05:56:54.797Z,65.38
2019-06-01T06:00:03.419Z,65.58
2019-06-01T06:03:15.088Z,65.96
2019-06-01T06:06:22.463Z,65.46
2019-06-01T06:09:31.069Z,64.78
2019-06-01T06:12:39.771Z,64.27
2019-06-01T06:15:58.621Z,64.10
2019-06-01T06:19:07.286Z,64.15
2019-06-01T06:22:16.193Z,64.30
2019-06-01T06:25:28.316Z,63.77
2019-06-01T06:28:35.239Z,63.49
2019-06-01T06:31:43.846Z,63.80
2019-06-01T06:34:52.454Z,63.47
2019-06-01T06:38:01.214Z,61.73
2019-06-01T06:41:09.337Z,60.82
2019-06-01T06:44:29.532Z,60.49
2019-06-01T06:47:39.892Z,60.12
2019-06-01T06:50:48.496Z,59.90
2019-06-01T06:53:55.623Z,60.50
2019-06-01T06:57:04.307Z,60.74
2019-06-01T07:00:13.745Z,59.74
2019-06-01T07:03:23.099Z,60.13
2019-06-01T07:06:42.020Z,60.38
2019-06-01T07:09:50.591Z,59.70
2019-06-01T07:12:59.298Z,59.03
2019-06-01T07:16:07.917Z,59.36
2019-06-01T07:19:16.651Z,58.05
2019-06-01T07:22:23.855Z,58.24
2019-06-01T07:25:33.042Z,58.68
2019-06-01T07:28:44.556Z,59.09
2019-06-01T07:31:53.249Z,59.00
2019-06-01T07:35:01.937Z,58.88
2019-06-01T07:38:11.826Z,59.05
2019-06-01T07:41:20.681Z,59.31
2019-06-01T07:44:29.371Z,58.81
2019-06-01T07:47:48.708Z,59.70
2019-06-01T07:50:57.444Z,57.96
2019-06-01T07:54:06.181Z,57.70
2019-06-01T07:57:14.800Z,55.22
2019-06-01T08:00:24.517Z,55.34
2019-06-01T08:03:35.092Z,55.82
2019-06-01T08:06:47.307Z,55.18
2019-06-01T08:09:54.124Z,56.08
2019-06-01T08:13:02.802Z,56.46
2019-06-01T08:16:11.434Z,56.39
2019-06-01T08:19:32.756Z,55.39
2019-06-01T08:22:41.287Z,55.65
2019-06-01T08:25:49.812Z,55.28
2019-06-01T08:28:58.467Z,55.44
2019-06-01T08:32:07.073Z,55.08
2019-06-01T08:35:15.887Z,55.91
2019-06-01T08:38:25.556Z,55.72
2019-06-01T08:41:34.329Z,55.34
2019-06-01T08:44:43.059Z,54.15
2019-06-01T08:47:51.678Z,54.61
2019-06-01T08:51:00.355Z,54.74
2019-06-01T08:54:08.950Z,54.15
2019-06-01T08:57:18.896Z,55.08
2019-06-01T09:00:37.762Z,54.30
2019-06-01T09:03:47.080Z,54.41
2019-06-01T09:07:05.782Z,54.28
2019-06-01T09:10:15.755Z,55.04
2019-06-01T09:13:25.130Z,54.40
2019-06-01T09:16:45.468Z,53.82
2019-06-01T09:19:54.165Z,53.66
2019-06-01T09:23:02.774Z,53.31
2019-06-01T09:26:11.404Z,53.20
2019-06-01T09:29:21.244Z,53.23
2019-06-01T09:32:30.095Z,53.88
2019-06-01T09:35:55.590Z,53.18
2019-06-01T09:38:59.575Z,52.73
2019-06-01T09:42:08.199Z,52.70
2019-06-01T09:45:17.227Z,52.17
2019-06-01T09:48:27.062Z,52.51
2019-06-01T09:51:35.864Z,53.29
2019-06-01T09:54:44.585Z,53.09
2019-06-01T09:57:53.303Z,51.28
2019-06-01T10:01:02.249Z,51.68
2019-06-01T10:04:11.027Z,51.01
2019-06-01T10:07:19.621Z,50.38
2019-06-01T10:10:29.746Z,50.95
2019-06-01T10:13:38.563Z,50.98
2019-06-01T10:16:47.304Z,50.89
2019-06-01T10:20:07.103Z,49.60
2019-06-01T10:23:15.639Z,50.04
2019-06-01T10:26:24.282Z,49.14
2019-06-01T10:29:43.217Z,49.28
2019-06-01T10:32:51.919Z,49.59
2019-06-01T10:36:18.595Z,49.34
2019-06-01T10:39:10.960Z,49.93
2019-06-01T10:42:19.586Z,48.35
2019-06-01T10:45:28.193Z,50.14
2019-06-01T10:48:37.993Z,49.16
2019-06-01T10:51:46.821Z,48.66
2019-06-01T10:54:55.426Z,49.13
2019-06-01T10:58:14.325Z,48.44
2019-06-01T11:01:23.146Z,48.37
2019-06-01T11:04:32.764Z,47.58
2019-06-01T11:07:43.276Z,47.79
2019-06-01T11:10:52.014Z,47.10
2019-06-01T11:14:00.537Z,47.40
2019-06-01T11:17:09.156Z,47.52
2019-06-01T11:20:28.034Z,47.55
2019-06-01T11:23:37.484Z,47.73
2019-06-01T11:26:44.749Z,48.04
2019-06-01T11:29:53.307Z,48.09
2019-06-01T11:33:12.199Z,46.89
2019-06-01T11:36:20.833Z,46.03
2019-06-01T11:39:29.446Z,46.04
2019-06-01T11:42:39.069Z,46.22
2019-06-01T11:45:47.924Z,45.83
2019-06-01T11:49:07.013Z,45.71
2019-06-01T11:52:15.141Z,45.64
2019-06-01T11:55:23.675Z,45.50
2019-06-01T11:58:32.310Z,45.04
2019-06-01T12:01:41.755Z,44.58
2019-06-01T12:04:50.533Z,44.91
2019-06-01T12:07:59.647Z,44.13
2019-06-01T12:11:08.342Z,44.32
2019-06-01T12:14:18.167Z,44.15
2019-06-01T12:17:26.810Z,43.94
2019-06-01T12:20:36.635Z,43.08
2019-06-01T12:23:55.738Z,42.01
2019-06-01T12:27:04.496Z,41.96
2019-06-01T12:30:13.519Z,41.17
2019-06-01T12:33:22.165Z,40.17
2019-06-01T12:36:30.783Z,37.51
2019-06-01T12:39:40.377Z,36.82
2019-06-01T12:42:49.109Z,35.03
2019-06-01T12:46:07.154Z,33.61
2019-06-01T12:49:18.455Z,32.27
2019-06-01T12:52:27.058Z,31.97
2019-06-01T12:55:35.719Z,32.55
2019-06-01T12:58:46.026Z,32.57
2019-06-01T13:01:54.671Z,33.89
2019-06-01T13:05:03.474Z,35.87
2019-06-01T13:08:12.170Z,36.90
2019-06-01T13:11:20.981Z,36.16
2019-06-01T13:14:29.644Z,35.16
2019-06-01T13:17:38.155Z,35.59
2019-06-01T13:20:47.682Z,37.22
2019-06-01T13:23:56.554Z,37.84
2019-06-01T13:27:05.191Z,38.97
2019-06-01T13:30:14.255Z,40.40
2019-06-01T13:33:22.760Z,39.18
2019-06-01T13:36:32.882Z,39.38
2019-06-01T13:39:42.825Z,39.85
2019-06-01T13:42:51.734Z,40.32
2019-06-01T13:46:00.445Z,40.77
2019-06-01T13:49:09.084Z,40.60
2019-06-01T13:52:27.984Z,40.95
2019-06-01T13:55:36.544Z,40.20
2019-06-01T13:58:46.400Z,41.00
2019-06-01T14:01:55.380Z,41.47
2019-06-01T14:05:04.578Z,42.12
2019-06-01T14:08:28.045Z,42.31
2019-06-01T14:11:23.545Z,42.54
2019-06-01T14:14:32.306Z,44.60
2019-06-01T14:17:40.951Z,44.92
2019-06-01T14:20:49.699Z,44.42
2019-06-01T14:23:58.461Z,45.18
2019-06-01T14:27:07.199Z,46.54
2019-06-01T14:30:17.639Z,47.05
2019-06-01T14:33:27.611Z,47.91
2019-06-01T14:36:46.507Z,47.84
2019-06-01T14:39:55.425Z,47.18
2019-06-01T14:43:04.065Z,48.34
2019-06-01T14:46:12.975Z,48.40
2019-06-01T14:49:21.617Z,48.77
2019-06-01T14:52:30.162Z,49.01
2019-06-01T14:55:38.841Z,48.79
2019-06-01T14:58:47.803Z,49.00
2019-06-01T15:01:56.617Z,48.82
2019-06-01T15:05:06.182Z,49.29
2019-06-01T15:08:25.019Z,50.12
2019-06-01T15:11:33.725Z,50.38
2019-06-01T15:14:42.468Z,50.73
2019-06-01T15:17:51.808Z,50.62
2019-06-01T15:21:10.710Z,50.40
2019-06-01T15:24:19.493Z,50.31
2019-06-01T15:27:28.100Z,50.86
2019-06-01T15:30:36.767Z,50.59
2019-06-01T15:33:45.283Z,50.51
2019-06-01T15:36:55.563Z,50.87
2019-06-01T15:40:04.700Z,50.52
2019-06-01T15:43:13.346Z,51.56
2019-06-01T15:46:21.963Z,51.26
2019-06-01T15:49:30.599Z,51.37
2019-06-01T15:52:39.285Z,50.85
2019-06-01T15:55:59.192Z,50.73
2019-06-01T15:59:07.813Z,50.97
2019-06-01T16:02:16.412Z,50.45
2019-06-01T16:05:25.045Z,50.33
2019-06-01T16:08:44.029Z,50.50
2019-06-01T16:12:03.787Z,51.24
2019-06-01T16:15:14.046Z,51.14
2019-06-01T16:18:33.752Z,51.63
2019-06-01T16:21:53.725Z,51.14
2019-06-01T16:25:02.649Z,51.48
2019-06-01T16:28:11.440Z,51.51
2019-06-01T16:31:20.592Z,51.88
2019-06-01T16:34:29.138Z,52.08
2019-06-01T16:37:37.744Z,52.48
2019-06-01T16:40:46.376Z,50.78
2019-06-01T16:43:55.484Z,51.27
2019-06-01T16:47:04.635Z,51.60
2019-06-01T16:50:16.724Z,52.77
2019-06-01T16:53:25.241Z,53.14
2019-06-01T16:56:33.880Z,53.51
2019-06-01T16:59:42.104Z,54.43
2019-06-01T17:02:50.686Z,54.08
2019-06-01T17:06:09.438Z,54.21
2019-06-01T17:09:18.112Z,55.18
2019-06-01T17:12:26.651Z,55.05
2019-06-01T17:15:35.279Z,55.01
2019-06-01T17:18:45.213Z,54.82
2019-06-01T17:22:03.956Z,54.77
2019-06-01T17:25:13.004Z,54.52
2019-06-01T17:28:21.592Z,54.45
2019-06-01T17:31:30.240Z,54.75
2019-06-01T17:34:38.748Z,54.84
2019-06-01T17:37:47.515Z,54.54
2019-06-01T17:40:56.139Z,55.00
2019-06-01T17:44:04.838Z,55.04
2019-06-01T17:47:13.584Z,55.34
2019-06-01T17:50:23.574Z,55.63
2019-06-01T17:53:42.541Z,55.82
2019-06-01T17:56:51.177Z,56.16
2019-06-01T17:59:59.787Z,56.23
2019-06-01T18:03:12.093Z,55.92
2019-06-01T18:06:20.796Z,56.43
2019-06-01T18:09:29.586Z,56.13
2019-06-01T18:12:38.297Z,55.85
2019-06-01T18:15:50.117Z,55.91
2019-06-01T18:18:58.934Z,56.86
2019-06-01T18:22:07.024Z,56.91
2019-06-01T18:25:29.018Z,56.47
2019-06-01T18:28:37.663Z,56.62
2019-06-01T18:31:46.438Z,57.03
2019-06-01T18:34:54.965Z,56.69
2019-06-01T18:38:05.724Z,56.90
2019-06-01T18:41:19.531Z,57.17
2019-06-01T18:44:25.048Z,57.21
2019-06-01T18:47:33.761Z,56.97
2019-06-01T18:50:42.591Z,57.09
2019-06-01T18:53:52.618Z,57.34
2019-06-01T18:57:14.166Z,57.80
2019-06-01T19:00:15.702Z,57.80
2019-06-01T19:03:24.344Z,57.94
2019-06-01T19:06:32.848Z,58.16
2019-06-01T19:09:42.626Z,58.37
2019-06-01T19:12:51.267Z,58.11
2019-06-01T19:16:10.150Z,57.95
2019-06-01T19:19:18.833Z,57.51
2019-06-01T19:22:27.496Z,57.97
2019-06-01T19:25:36.121Z,57.85
2019-06-01T19:28:44.995Z,57.10
2019-06-01T19:31:53.612Z,56.99
2019-06-01T19:35:02.285Z,57.54
2019-06-01T19:38:11.420Z,57.78
2019-06-01T19:41:20.296Z,58.15
2019-06-01T19:44:29.169Z,58.01
2019-06-01T19:47:37.787Z,58.34
2019-06-01T19:50:46.489Z,58.39
2019-06-01T19:53:55.096Z,58.22
2019-06-01T19:57:03.708Z,57.55
2019-06-01T20:00:12.516Z,57.91
2019-06-01T20:03:22.703Z,57.25
2019-06-01T20:06:31.407Z,56.43
2019-06-01T20:09:40.108Z,56.12
2019-06-01T20:13:04.947Z,56.06
2019-06-01T20:16:14.607Z,55.93
2019-06-01T20:19:23.353Z,56.08
2019-06-01T20:22:31.857Z,55.99
2019-06-01T20:25:39.536Z,56.11
2019-06-01T20:28:48.145Z,55.99
2019-06-01T20:31:56.902Z,56.11
2019-06-01T20:35:06.292Z,56.20
2019-06-01T20:38:16.450Z,56.67
2019-06-01T20:41:25.270Z,57.29
2019-06-01T20:44:33.981Z,57.20
2019-06-01T20:47:42.616Z,57.43
2019-06-01T20:50:51.393Z,57.58
2019-06-01T20:54:00.097Z,57.27
2019-06-01T20:57:08.731Z,57.40
2019-06-01T21:00:20.014Z,57.19
2019-06-01T21:03:28.660Z,56.76
2019-06-01T21:06:37.288Z,56.81
2019-06-01T21:09:45.900Z,56.77
2019-06-01T21:12:54.598Z,57.11
2019-06-01T21:16:03.210Z,57.30
2019-06-01T21:19:11.846Z,57.28
2019-06-01T21:22:36.703Z,58.50
2019-06-01T21:25:45.429Z,58.45
2019-06-01T21:28:53.965Z,58.24
2019-06-01T21:32:02.805Z,58.20
2019-06-01T21:35:11.419Z,58.66
2019-06-01T21:38:21.083Z,58.64
2019-06-01T21:41:29.939Z,58.44
2019-06-01T21:44:48.803Z,57.94
2019-06-01T21:47:57.466Z,57.73
2019-06-01T21:51:06.075Z,57.41
2019-06-01T21:54:16.025Z,58.08
2019-06-01T21:57:27.642Z,58.51
2019-06-01T22:00:48.128Z,59.04
2019-06-01T22:03:56.664Z,59.52
2019-06-01T22:07:06.498Z,59.14
2019-06-01T22:10:15.288Z,59.35
2019-06-01T22:13:25.886Z,59.85
2019-06-01T22:16:34.341Z,59.69
2019-06-01T22:19:42.980Z,59.34
2019-06-01T22:23:01.872Z,59.43
2019-06-01T22:26:10.646Z,60.37
2019-06-01T22:29:20.175Z,60.69
2019-06-01T22:32:31.306Z,61.02
2019-06-01T22:35:39.266Z,61.90
2019-06-01T22:38:47.917Z,61.42
2019-06-01T22:42:06.709Z,61.54
2019-06-01T22:45:15.541Z,61.24
2019-06-01T22:48:24.604Z,61.51
2019-06-01T22:51:43.619Z,61.44
2019-06-01T22:54:52.211Z,61.53
2019-06-01T22:58:00.787Z,61.81
2019-06-01T23:01:09.414Z,62.35
2019-06-01T23:04:18.051Z,62.27
2019-06-01T23:07:27.253Z,62.91
2019-06-01T23:10:35.994Z,63.33
2019-06-01T23:13:53.404Z,63.49
2019-06-01T23:16:54.964Z,63.99
2019-06-01T23:20:03.736Z,64.36
2019-06-01T23:23:13.759Z,64.47
2019-06-01T23:26:32.599Z,64.41
2019-06-01T23:29:42.011Z,64.43
2019-06-01T23:32:50.614Z,64.43
2019-06-01T23:35:59.742Z,64.82
2019-06-01T23:39:09.257Z,65.11
2019-06-01T23:42:17.758Z,65.00
2019-06-01T23:45:26.668Z,65.99
2019-06-01T23:48:35.424Z,66.31
2019-06-01T23:51:44.061Z,66.88
2019-06-01T23:54:52.826Z,67.18
2019-06-01T23:58:01.346Z,67.34
